sensor_id;sensor_type;location;lat;lon;timestamp;P1;durP1;ratioP1;P2;durP2;ratioP2
3865;SDS011;1948;53.250;10.412;2023-04-03T00:01:24;11.07;;;2.40;;
3865;SDS011;1948;53.250;10.412;2023-04-03T00:03:53;7.87;;;2.43;;
3865;SDS011;1948;53.250;10.412;2023-04-03T00:06:23;3.23;;;2.27;;
3865;SDS011;1948;53.250;10.412;2023-04-03T00:08:51;2.03;;;1.97;;
3865;SDS011;1948;53.250;10.412;2023-04-03T00:11:19;2.03;;;1.70;;
3865;SDS011;1948;53.250;10.412;2023-04-03T00:13:46;5.00;;;2.00;;
3865;SDS011;1948;53.250;10.412;2023-04-03T00:16:15;5.50;;;2.53;;
3865;SDS011;1948;53.250;10.412;2023-04-03T00:18:45;7.93;;;2.87;;
3865;SDS011;1948;53.250;10.412;2023-04-03T00:21:15;5.27;;;2.73;;
3865;SDS011;1948;53.250;10.412;2023-04-03T00:23:44;7.50;;;3.00;;
3865;SDS011;1948;53.250;10.412;2023-04-03T00:26:11;14.30;;;2.80;;
3865;SDS011;1948;53.250;10.412;2023-04-03T00:28:38;4.37;;;2.20;;
3865;SDS011;1948;53.250;10.412;2023-04-03T00:31:09;9.23;;;2.47;;
3865;SDS011;1948;53.250;10.412;2023-04-03T00:33:39;6.63;;;2.10;;
3865;SDS011;1948;53.250;10.412;2023-04-03T00:36:09;3.13;;;2.20;;
3865;SDS011;1948;53.250;10.412;2023-04-03T00:38:39;3.20;;;2.00;;
3865;SDS011;1948;53.250;10.412;2023-04-03T00:41:08;5.87;;;2.57;;
3865;SDS011;1948;53.250;10.412;2023-04-03T00:43:35;2.57;;;2.37;;
3865;SDS011;1948;53.250;10.412;2023-04-03T00:46:02;4.63;;;2.50;;
3865;SDS011;1948;53.250;10.412;2023-04-03T00:48:40;6.07;;;3.03;;
3865;SDS011;1948;53.250;10.412;2023-04-03T00:51:19;6.30;;;2.40;;
3865;SDS011;1948;53.250;10.412;2023-04-03T00:53:52;2.77;;;1.83;;
3865;SDS011;1948;53.250;10.412;2023-04-03T00:56:25;4.00;;;2.43;;
3865;SDS011;1948;53.250;10.412;2023-04-03T00:59:13;3.40;;;2.20;;
3865;SDS011;1948;53.250;10.412;2023-04-03T01:01:44;3.27;;;2.00;;
3865;SDS011;1948;53.250;10.412;2023-04-03T01:04:27;5.03;;;2.37;;
3865;SDS011;1948;53.250;10.412;2023-04-03T01:07:08;5.77;;;2.43;;
3865;SDS011;1948;53.250;10.412;2023-04-03T01:09:44;3.70;;;1.90;;
3865;SDS011;1948;53.250;10.412;2023-04-03T01:14:58;12.63;;;3.63;;
3865;SDS011;1948;53.250;10.412;2023-04-03T01:17:48;2.40;;;2.17;;
3865;SDS011;1948;53.250;10.412;2023-04-03T01:25:39;4.97;;;2.53;;
3865;SDS011;1948;53.250;10.412;2023-04-03T01:28:22;4.77;;;2.30;;
3865;SDS011;1948;53.250;10.412;2023-04-03T01:31:02;6.50;;;3.00;;
3865;SDS011;1948;53.250;10.412;2023-04-03T01:33:43;2.90;;;2.33;;
3865;SDS011;1948;53.250;10.412;2023-04-03T01:36:14;3.20;;;2.13;;
3865;SDS011;1948;53.250;10.412;2023-04-03T01:38:48;2.80;;;2.60;;
3865;SDS011;1948;53.250;10.412;2023-04-03T01:41:18;2.87;;;1.93;;
3865;SDS011;1948;53.250;10.412;2023-04-03T01:43:47;2.60;;;2.30;;
3865;SDS011;1948;53.250;10.412;2023-04-03T01:46:22;4.10;;;2.60;;
3865;SDS011;1948;53.250;10.412;2023-04-03T01:48:49;5.60;;;2.80;;
3865;SDS011;1948;53.250;10.412;2023-04-03T01:51:16;3.37;;;2.57;;
3865;SDS011;1948;53.250;10.412;2023-04-03T01:53:46;6.83;;;2.77;;
3865;SDS011;1948;53.250;10.412;2023-04-03T01:56:13;3.13;;;2.20;;
3865;SDS011;1948;53.250;10.412;2023-04-03T01:58:42;5.13;;;2.20;;
3865;SDS011;1948;53.250;10.412;2023-04-03T02:01:09;11.53;;;2.90;;
3865;SDS011;1948;53.250;10.412;2023-04-03T02:03:36;5.10;;;2.90;;
3865;SDS011;1948;53.250;10.412;2023-04-03T02:06:04;5.70;;;2.63;;
3865;SDS011;1948;53.250;10.412;2023-04-03T02:08:31;5.97;;;2.80;;
3865;SDS011;1948;53.250;10.412;2023-04-03T02:11:03;4.30;;;2.60;;
3865;SDS011;1948;53.250;10.412;2023-04-03T02:13:30;6.23;;;2.57;;
3865;SDS011;1948;53.250;10.412;2023-04-03T02:15:57;11.03;;;2.50;;
3865;SDS011;1948;53.250;10.412;2023-04-03T02:18:25;8.70;;;3.00;;
3865;SDS011;1948;53.250;10.412;2023-04-03T02:20:52;5.17;;;2.70;;
3865;SDS011;1948;53.250;10.412;2023-04-03T02:23:19;6.37;;;2.70;;
3865;SDS011;1948;53.250;10.412;2023-04-03T02:25:48;4.23;;;3.00;;
3865;SDS011;1948;53.250;10.412;2023-04-03T02:28:15;5.87;;;3.00;;
3865;SDS011;1948;53.250;10.412;2023-04-03T02:30:46;4.50;;;2.27;;
3865;SDS011;1948;53.250;10.412;2023-04-03T02:33:15;6.37;;;2.60;;
3865;SDS011;1948;53.250;10.412;2023-04-03T02:35:42;4.50;;;3.00;;
3865;SDS011;1948;53.250;10.412;2023-04-03T02:38:09;5.07;;;2.90;;
3865;SDS011;1948;53.250;10.412;2023-04-03T02:40:38;10.40;;;3.53;;
3865;SDS011;1948;53.250;10.412;2023-04-03T02:43:06;3.33;;;3.03;;
3865;SDS011;1948;53.250;10.412;2023-04-03T02:45:33;8.13;;;3.27;;
3865;SDS011;1948;53.250;10.412;2023-04-03T02:48:00;3.27;;;3.00;;
3865;SDS011;1948;53.250;10.412;2023-04-03T02:50:27;4.00;;;3.10;;
3865;SDS011;1948;53.250;10.412;2023-04-03T02:52:54;3.87;;;3.57;;
3865;SDS011;1948;53.250;10.412;2023-04-03T02:55:26;6.87;;;2.70;;
3865;SDS011;1948;53.250;10.412;2023-04-03T02:57:55;5.77;;;4.20;;
3865;SDS011;1948;53.250;10.412;2023-04-03T03:00:22;5.77;;;3.00;;
3865;SDS011;1948;53.250;10.412;2023-04-03T03:02:49;5.17;;;2.97;;
3865;SDS011;1948;53.250;10.412;2023-04-03T03:05:16;13.97;;;3.03;;
3865;SDS011;1948;53.250;10.412;2023-04-03T03:07:43;5.67;;;3.20;;
3865;SDS011;1948;53.250;10.412;2023-04-03T03:10:11;3.90;;;2.40;;
3865;SDS011;1948;53.250;10.412;2023-04-03T03:12:41;5.77;;;3.00;;
3865;SDS011;1948;53.250;10.412;2023-04-03T03:15:10;6.17;;;2.70;;
3865;SDS011;1948;53.250;10.412;2023-04-03T03:17:37;12.30;;;4.23;;
3865;SDS011;1948;53.250;10.412;2023-04-03T03:20:05;7.20;;;2.93;;
3865;SDS011;1948;53.250;10.412;2023-04-03T03:22:33;2.73;;;2.30;;
3865;SDS011;1948;53.250;10.412;2023-04-03T03:25:01;3.33;;;2.70;;
3865;SDS011;1948;53.250;10.412;2023-04-03T03:27:29;5.10;;;3.20;;
3865;SDS011;1948;53.250;10.412;2023-04-03T03:29:57;7.83;;;2.60;;
3865;SDS011;1948;53.250;10.412;2023-04-03T03:32:27;4.47;;;2.77;;
3865;SDS011;1948;53.250;10.412;2023-04-03T03:34:54;3.10;;;2.63;;
3865;SDS011;1948;53.250;10.412;2023-04-03T03:37:24;3.43;;;3.17;;
3865;SDS011;1948;53.250;10.412;2023-04-03T03:39:51;4.37;;;2.83;;
3865;SDS011;1948;53.250;10.412;2023-04-03T03:42:18;10.30;;;3.03;;
3865;SDS011;1948;53.250;10.412;2023-04-03T03:44:47;15.90;;;3.30;;
3865;SDS011;1948;53.250;10.412;2023-04-03T03:47:14;3.43;;;2.40;;
3865;SDS011;1948;53.250;10.412;2023-04-03T03:49:43;16.57;;;3.10;;
3865;SDS011;1948;53.250;10.412;2023-04-03T03:52:10;5.10;;;3.33;;
3865;SDS011;1948;53.250;10.412;2023-04-03T03:54:40;4.10;;;2.90;;
3865;SDS011;1948;53.250;10.412;2023-04-03T03:57:10;6.60;;;2.97;;
3865;SDS011;1948;53.250;10.412;2023-04-03T03:59:38;10.23;;;2.93;;
3865;SDS011;1948;53.250;10.412;2023-04-03T04:02:07;5.30;;;3.10;;
3865;SDS011;1948;53.250;10.412;2023-04-03T04:04:36;4.73;;;3.00;;
3865;SDS011;1948;53.250;10.412;2023-04-03T04:07:03;6.90;;;3.80;;
3865;SDS011;1948;53.250;10.412;2023-04-03T04:09:31;10.00;;;2.90;;
3865;SDS011;1948;53.250;10.412;2023-04-03T04:12:03;4.30;;;3.23;;
3865;SDS011;1948;53.250;10.412;2023-04-03T04:14:33;4.30;;;2.97;;
3865;SDS011;1948;53.250;10.412;2023-04-03T04:17:00;4.83;;;3.17;;
3865;SDS011;1948;53.250;10.412;2023-04-03T04:19:28;3.43;;;3.00;;
3865;SDS011;1948;53.250;10.412;2023-04-03T04:22:02;8.40;;;3.63;;
3865;SDS011;1948;53.250;10.412;2023-04-03T04:24:32;6.13;;;3.50;;
3865;SDS011;1948;53.250;10.412;2023-04-03T04:26:59;9.10;;;3.07;;
3865;SDS011;1948;53.250;10.412;2023-04-03T04:29:26;9.50;;;3.20;;
3865;SDS011;1948;53.250;10.412;2023-04-03T04:31:56;4.93;;;3.30;;
3865;SDS011;1948;53.250;10.412;2023-04-03T04:34:23;8.50;;;3.53;;
3865;SDS011;1948;53.250;10.412;2023-04-03T04:36:52;7.60;;;3.73;;
3865;SDS011;1948;53.250;10.412;2023-04-03T04:39:19;20.90;;;3.50;;
3865;SDS011;1948;53.250;10.412;2023-04-03T04:41:47;9.20;;;3.57;;
3865;SDS011;1948;53.250;10.412;2023-04-03T04:44:16;3.40;;;3.07;;
3865;SDS011;1948;53.250;10.412;2023-04-03T04:46:43;5.77;;;3.60;;
3865;SDS011;1948;53.250;10.412;2023-04-03T04:49:13;6.17;;;3.63;;
3865;SDS011;1948;53.250;10.412;2023-04-03T04:51:40;10.60;;;3.70;;
3865;SDS011;1948;53.250;10.412;2023-04-03T04:54:17;6.23;;;3.70;;
3865;SDS011;1948;53.250;10.412;2023-04-03T04:56:50;16.23;;;3.50;;
3865;SDS011;1948;53.250;10.412;2023-04-03T04:59:17;6.83;;;3.43;;
3865;SDS011;1948;53.250;10.412;2023-04-03T05:01:47;11.53;;;4.33;;
3865;SDS011;1948;53.250;10.412;2023-04-03T05:04:14;6.63;;;4.07;;
3865;SDS011;1948;53.250;10.412;2023-04-03T05:06:42;4.03;;;3.47;;
3865;SDS011;1948;53.250;10.412;2023-04-03T05:09:09;5.60;;;3.00;;
3865;SDS011;1948;53.250;10.412;2023-04-03T05:11:36;4.97;;;3.30;;
3865;SDS011;1948;53.250;10.412;2023-04-03T05:14:03;14.40;;;4.37;;
3865;SDS011;1948;53.250;10.412;2023-04-03T05:16:33;7.13;;;4.00;;
3865;SDS011;1948;53.250;10.412;2023-04-03T05:19:00;5.00;;;3.60;;
3865;SDS011;1948;53.250;10.412;2023-04-03T05:21:29;6.53;;;3.50;;
3865;SDS011;1948;53.250;10.412;2023-04-03T05:24:01;5.17;;;3.60;;
3865;SDS011;1948;53.250;10.412;2023-04-03T05:26:30;8.27;;;3.70;;
3865;SDS011;1948;53.250;10.412;2023-04-03T05:28:58;9.53;;;3.80;;
3865;SDS011;1948;53.250;10.412;2023-04-03T05:31:25;6.07;;;3.63;;
3865;SDS011;1948;53.250;10.412;2023-04-03T05:33:58;19.13;;;4.43;;
3865;SDS011;1948;53.250;10.412;2023-04-03T05:36:25;6.23;;;4.23;;
3865;SDS011;1948;53.250;10.412;2023-04-03T05:38:53;11.30;;;4.13;;
3865;SDS011;1948;53.250;10.412;2023-04-03T05:41:22;19.70;;;4.13;;
3865;SDS011;1948;53.250;10.412;2023-04-03T05:43:50;28.13;;;3.80;;
3865;SDS011;1948;53.250;10.412;2023-04-03T05:46:19;6.33;;;3.80;;
3865;SDS011;1948;53.250;10.412;2023-04-03T05:48:49;21.00;;;4.90;;
3865;SDS011;1948;53.250;10.412;2023-04-03T05:51:17;7.60;;;3.83;;
3865;SDS011;1948;53.250;10.412;2023-04-03T05:54:16;15.67;;;3.80;;
3865;SDS011;1948;53.250;10.412;2023-04-03T05:56:50;8.60;;;3.83;;
3865;SDS011;1948;53.250;10.412;2023-04-03T05:59:21;8.30;;;3.87;;
3865;SDS011;1948;53.250;10.412;2023-04-03T06:01:50;4.70;;;3.70;;
3865;SDS011;1948;53.250;10.412;2023-04-03T06:04:17;11.60;;;4.30;;
3865;SDS011;1948;53.250;10.412;2023-04-03T06:06:55;13.70;;;4.63;;
3865;SDS011;1948;53.250;10.412;2023-04-03T06:09:25;9.00;;;4.27;;
3865;SDS011;1948;53.250;10.412;2023-04-03T06:11:55;32.00;;;4.33;;
3865;SDS011;1948;53.250;10.412;2023-04-03T06:14:26;6.07;;;3.87;;
3865;SDS011;1948;53.250;10.412;2023-04-03T06:16:58;19.33;;;3.53;;
3865;SDS011;1948;53.250;10.412;2023-04-03T06:19:28;8.53;;;3.17;;
3865;SDS011;1948;53.250;10.412;2023-04-03T06:21:55;4.87;;;3.63;;
3865;SDS011;1948;53.250;10.412;2023-04-03T06:24:22;4.10;;;3.67;;
3865;SDS011;1948;53.250;10.412;2023-04-03T06:26:51;4.43;;;3.53;;
3865;SDS011;1948;53.250;10.412;2023-04-03T06:29:21;11.13;;;4.13;;
3865;SDS011;1948;53.250;10.412;2023-04-03T06:31:53;13.13;;;4.00;;
3865;SDS011;1948;53.250;10.412;2023-04-03T06:34:21;7.20;;;2.90;;
3865;SDS011;1948;53.250;10.412;2023-04-03T06:36:50;7.13;;;2.50;;
3865;SDS011;1948;53.250;10.412;2023-04-03T06:39:18;3.00;;;2.70;;
3865;SDS011;1948;53.250;10.412;2023-04-03T06:41:50;3.70;;;2.33;;
3865;SDS011;1948;53.250;10.412;2023-04-03T06:44:20;7.87;;;2.20;;
3865;SDS011;1948;53.250;10.412;2023-04-03T06:46:49;3.47;;;2.50;;
3865;SDS011;1948;53.250;10.412;2023-04-03T06:49:17;6.80;;;2.47;;
3865;SDS011;1948;53.250;10.412;2023-04-03T06:51:45;3.93;;;2.50;;
3865;SDS011;1948;53.250;10.412;2023-04-03T06:54:12;4.87;;;2.53;;
3865;SDS011;1948;53.250;10.412;2023-04-03T06:56:39;2.23;;;2.00;;
3865;SDS011;1948;53.250;10.412;2023-04-03T06:59:11;2.10;;;1.93;;
3865;SDS011;1948;53.250;10.412;2023-04-03T07:01:41;5.53;;;2.27;;
3865;SDS011;1948;53.250;10.412;2023-04-03T07:04:09;4.00;;;3.23;;
3865;SDS011;1948;53.250;10.412;2023-04-03T07:06:41;4.00;;;2.97;;
3865;SDS011;1948;53.250;10.412;2023-04-03T07:09:10;5.17;;;3.23;;
3865;SDS011;1948;53.250;10.412;2023-04-03T07:11:38;3.77;;;2.80;;
3865;SDS011;1948;53.250;10.412;2023-04-03T07:14:07;4.00;;;2.30;;
3865;SDS011;1948;53.250;10.412;2023-04-03T07:16:35;3.50;;;2.63;;
3865;SDS011;1948;53.250;10.412;2023-04-03T07:19:04;3.13;;;1.90;;
3865;SDS011;1948;53.250;10.412;2023-04-03T07:21:31;2.60;;;2.20;;
3865;SDS011;1948;53.250;10.412;2023-04-03T07:23:58;3.37;;;2.40;;
3865;SDS011;1948;53.250;10.412;2023-04-03T07:26:25;11.50;;;1.90;;
3865;SDS011;1948;53.250;10.412;2023-04-03T07:28:53;2.97;;;1.40;;
3865;SDS011;1948;53.250;10.412;2023-04-03T07:31:26;2.47;;;1.70;;
3865;SDS011;1948;53.250;10.412;2023-04-03T07:33:55;3.23;;;1.77;;
3865;SDS011;1948;53.250;10.412;2023-04-03T07:36:27;2.43;;;1.97;;
3865;SDS011;1948;53.250;10.412;2023-04-03T07:38:55;2.67;;;1.47;;
3865;SDS011;1948;53.250;10.412;2023-04-03T07:41:22;5.50;;;1.80;;
3865;SDS011;1948;53.250;10.412;2023-04-03T07:43:49;3.83;;;1.90;;
3865;SDS011;1948;53.250;10.412;2023-04-03T07:46:17;2.50;;;1.60;;
3865;SDS011;1948;53.250;10.412;2023-04-03T07:48:44;5.50;;;2.27;;
3865;SDS011;1948;53.250;10.412;2023-04-03T07:51:11;3.10;;;2.40;;
3865;SDS011;1948;53.250;10.412;2023-04-03T07:53:39;2.70;;;1.80;;
3865;SDS011;1948;53.250;10.412;2023-04-03T07:56:06;3.73;;;2.03;;
3865;SDS011;1948;53.250;10.412;2023-04-03T07:58:34;6.97;;;1.80;;
3865;SDS011;1948;53.250;10.412;2023-04-03T08:01:04;2.83;;;1.80;;
3865;SDS011;1948;53.250;10.412;2023-04-03T08:03:32;3.90;;;1.73;;
3865;SDS011;1948;53.250;10.412;2023-04-03T08:06:03;4.80;;;1.40;;
3865;SDS011;1948;53.250;10.412;2023-04-03T08:08:41;6.00;;;1.83;;
3865;SDS011;1948;53.250;10.412;2023-04-03T08:11:11;3.17;;;1.70;;
3865;SDS011;1948;53.250;10.412;2023-04-03T08:13:39;1.80;;;1.70;;
3865;SDS011;1948;53.250;10.412;2023-04-03T08:16:11;3.30;;;2.07;;
3865;SDS011;1948;53.250;10.412;2023-04-03T08:18:45;13.23;;;1.70;;
3865;SDS011;1948;53.250;10.412;2023-04-03T08:21:12;7.33;;;5.60;;
3865;SDS011;1948;53.250;10.412;2023-04-03T08:23:42;1.20;;;1.20;;
3865;SDS011;1948;53.250;10.412;2023-04-03T08:26:13;4.70;;;1.67;;
3865;SDS011;1948;53.250;10.412;2023-04-03T08:28:47;2.30;;;1.87;;
3865;SDS011;1948;53.250;10.412;2023-04-03T08:31:17;2.67;;;1.50;;
3865;SDS011;1948;53.250;10.412;2023-04-03T08:33:47;1.47;;;1.37;;
3865;SDS011;1948;53.250;10.412;2023-04-03T08:36:19;1.07;;;1.07;;
3865;SDS011;1948;53.250;10.412;2023-04-03T08:38:55;2.47;;;1.43;;
3865;SDS011;1948;53.250;10.412;2023-04-03T08:41:39;2.50;;;1.63;;
3865;SDS011;1948;53.250;10.412;2023-04-03T08:50:00;1.70;;;1.00;;
3865;SDS011;1948;53.250;10.412;2023-04-03T08:55:04;2.30;;;1.20;;
3865;SDS011;1948;53.250;10.412;2023-04-03T08:58:03;2.40;;;2.30;;
3865;SDS011;1948;53.250;10.412;2023-04-03T09:01:02;6.83;;;1.30;;
3865;SDS011;1948;53.250;10.412;2023-04-03T09:03:44;5.43;;;1.20;;
3865;SDS011;1948;53.250;10.412;2023-04-03T09:14:23;2.20;;;1.87;;
3865;SDS011;1948;53.250;10.412;2023-04-03T09:22:31;1.30;;;1.10;;
3865;SDS011;1948;53.250;10.412;2023-04-03T09:25:18;3.83;;;1.40;;
3865;SDS011;1948;53.250;10.412;2023-04-03T09:27:49;1.60;;;1.40;;
3865;SDS011;1948;53.250;10.412;2023-04-03T09:30:18;3.93;;;1.43;;
3865;SDS011;1948;53.250;10.412;2023-04-03T09:32:55;3.90;;;1.87;;
3865;SDS011;1948;53.250;10.412;2023-04-03T09:35:24;2.70;;;1.30;;
3865;SDS011;1948;53.250;10.412;2023-04-03T09:40:46;1.53;;;1.43;;
3865;SDS011;1948;53.250;10.412;2023-04-03T09:43:31;5.07;;;1.67;;
3865;SDS011;1948;53.250;10.412;2023-04-03T09:48:57;2.60;;;1.60;;
3865;SDS011;1948;53.250;10.412;2023-04-03T09:51:35;4.93;;;1.57;;
3865;SDS011;1948;53.250;10.412;2023-04-03T09:57:06;1.90;;;1.37;;
3865;SDS011;1948;53.250;10.412;2023-04-03T09:59:42;1.27;;;1.27;;
3865;SDS011;1948;53.250;10.412;2023-04-03T10:02:32;1.60;;;1.47;;
3865;SDS011;1948;53.250;10.412;2023-04-03T10:05:05;12.43;;;8.63;;
3865;SDS011;1948;53.250;10.412;2023-04-03T10:10:46;2.40;;;1.27;;
3865;SDS011;1948;53.250;10.412;2023-04-03T10:13:16;1.27;;;1.00;;
3865;SDS011;1948;53.250;10.412;2023-04-03T10:15:51;1.40;;;1.30;;
3865;SDS011;1948;53.250;10.412;2023-04-03T10:24:27;4.03;;;1.67;;
3865;SDS011;1948;53.250;10.412;2023-04-03T10:29:54;2.00;;;1.20;;
3865;SDS011;1948;53.250;10.412;2023-04-03T10:47:29;4.43;;;1.30;;
3865;SDS011;1948;53.250;10.412;2023-04-03T10:58:40;3.10;;;1.30;;
3865;SDS011;1948;53.250;10.412;2023-04-03T11:01:13;1.30;;;1.20;;
3865;SDS011;1948;53.250;10.412;2023-04-03T11:03:54;3.10;;;1.50;;
3865;SDS011;1948;53.250;10.412;2023-04-03T11:06:49;2.33;;;2.23;;
3865;SDS011;1948;53.250;10.412;2023-04-03T11:09:49;1.70;;;1.27;;
3865;SDS011;1948;53.250;10.412;2023-04-03T11:12:42;1.77;;;1.67;;
3865;SDS011;1948;53.250;10.412;2023-04-03T11:15:19;1.67;;;1.33;;
3865;SDS011;1948;53.250;10.412;2023-04-03T11:17:55;1.90;;;1.77;;
3865;SDS011;1948;53.250;10.412;2023-04-03T11:20:37;5.70;;;1.40;;
3865;SDS011;1948;53.250;10.412;2023-04-03T11:26:15;2.50;;;1.43;;
3865;SDS011;1948;53.250;10.412;2023-04-03T11:28:52;1.00;;;1.00;;
3865;SDS011;1948;53.250;10.412;2023-04-03T11:34:34;4.33;;;1.63;;
3865;SDS011;1948;53.250;10.412;2023-04-03T11:37:28;1.87;;;1.77;;
3865;SDS011;1948;53.250;10.412;2023-04-03T11:40:06;3.10;;;1.90;;
3865;SDS011;1948;53.250;10.412;2023-04-03T11:46:04;5.27;;;1.57;;
3865;SDS011;1948;53.250;10.412;2023-04-03T11:51:46;3.77;;;1.40;;
3865;SDS011;1948;53.250;10.412;2023-04-03T11:53:53;2.30;;;1.30;;
3865;SDS011;1948;53.250;10.412;2023-04-03T11:59:50;5.40;;;1.40;;
3865;SDS011;1948;53.250;10.412;2023-04-03T12:04:22;1.87;;;1.33;;
3865;SDS011;1948;53.250;10.412;2023-04-03T12:06:53;1.77;;;1.67;;
3865;SDS011;1948;53.250;10.412;2023-04-03T12:15:11;2.70;;;1.70;;
3865;SDS011;1948;53.250;10.412;2023-04-03T12:17:45;1.20;;;1.20;;
3865;SDS011;1948;53.250;10.412;2023-04-03T12:23:29;1.73;;;1.30;;
3865;SDS011;1948;53.250;10.412;2023-04-03T12:26:03;4.53;;;1.20;;
3865;SDS011;1948;53.250;10.412;2023-04-03T12:28:48;7.90;;;1.60;;
3865;SDS011;1948;53.250;10.412;2023-04-03T12:31:20;11.73;;;1.80;;
3865;SDS011;1948;53.250;10.412;2023-04-03T12:45:43;2.60;;;1.33;;
3865;SDS011;1948;53.250;10.412;2023-04-03T12:48:21;4.33;;;1.83;;
3865;SDS011;1948;53.250;10.412;2023-04-03T12:50:52;1.53;;;1.37;;
3865;SDS011;1948;53.250;10.412;2023-04-03T12:53:22;1.67;;;1.53;;
3865;SDS011;1948;53.250;10.412;2023-04-03T12:56:17;3.07;;;1.50;;
3865;SDS011;1948;53.250;10.412;2023-04-03T13:01:56;1.33;;;1.20;;
3865;SDS011;1948;53.250;10.412;2023-04-03T13:04:28;3.90;;;2.23;;
3865;SDS011;1948;53.250;10.412;2023-04-03T13:06:57;2.23;;;1.40;;
3865;SDS011;1948;53.250;10.412;2023-04-03T13:09:31;2.30;;;1.30;;
3865;SDS011;1948;53.250;10.412;2023-04-03T13:12:16;2.60;;;1.50;;
3865;SDS011;1948;53.250;10.412;2023-04-03T13:14:57;2.70;;;1.70;;
3865;SDS011;1948;53.250;10.412;2023-04-03T13:17:42;1.30;;;1.30;;
3865;SDS011;1948;53.250;10.412;2023-04-03T13:20:14;6.80;;;1.50;;
3865;SDS011;1948;53.250;10.412;2023-04-03T13:22:56;2.40;;;1.50;;
3865;SDS011;1948;53.250;10.412;2023-04-03T13:25:24;5.50;;;1.40;;
3865;SDS011;1948;53.250;10.412;2023-04-03T13:27:57;3.80;;;1.60;;
3865;SDS011;1948;53.250;10.412;2023-04-03T13:30:40;1.40;;;1.30;;
3865;SDS011;1948;53.250;10.412;2023-04-03T13:33:23;3.70;;;1.30;;
3865;SDS011;1948;53.250;10.412;2023-04-03T13:35:56;1.27;;;1.27;;
3865;SDS011;1948;53.250;10.412;2023-04-03T13:38:31;2.77;;;1.03;;
3865;SDS011;1948;53.250;10.412;2023-04-03T13:41:20;2.03;;;1.30;;
3865;SDS011;1948;53.250;10.412;2023-04-03T13:43:52;3.03;;;1.50;;
3865;SDS011;1948;53.250;10.412;2023-04-03T13:46:35;1.43;;;1.27;;
3865;SDS011;1948;53.250;10.412;2023-04-03T13:49:09;1.10;;;1.00;;
3865;SDS011;1948;53.250;10.412;2023-04-03T13:51:58;2.17;;;1.20;;
3865;SDS011;1948;53.250;10.412;2023-04-03T13:54:37;1.80;;;1.33;;
3865;SDS011;1948;53.250;10.412;2023-04-03T13:57:13;1.83;;;1.67;;
3865;SDS011;1948;53.250;10.412;2023-04-03T13:59:42;4.00;;;1.50;;
3865;SDS011;1948;53.250;10.412;2023-04-03T14:02:15;3.70;;;1.57;;
3865;SDS011;1948;53.250;10.412;2023-04-03T14:04:59;1.97;;;1.40;;
3865;SDS011;1948;53.250;10.412;2023-04-03T14:07:30;2.00;;;1.80;;
3865;SDS011;1948;53.250;10.412;2023-04-03T14:10:00;2.20;;;1.40;;
3865;SDS011;1948;53.250;10.412;2023-04-03T14:12:35;2.30;;;1.33;;
3865;SDS011;1948;53.250;10.412;2023-04-03T14:15:10;4.73;;;1.33;;
3865;SDS011;1948;53.250;10.412;2023-04-03T14:17:46;2.73;;;1.03;;
3865;SDS011;1948;53.250;10.412;2023-04-03T14:20:14;1.00;;;1.00;;
3865;SDS011;1948;53.250;10.412;2023-04-03T14:22:48;3.23;;;1.33;;
3865;SDS011;1948;53.250;10.412;2023-04-03T14:25:15;1.63;;;1.30;;
3865;SDS011;1948;53.250;10.412;2023-04-03T14:27:45;1.80;;;1.47;;
3865;SDS011;1948;53.250;10.412;2023-04-03T14:32:49;3.90;;;1.30;;
3865;SDS011;1948;53.250;10.412;2023-04-03T14:35:17;2.43;;;1.47;;
3865;SDS011;1948;53.250;10.412;2023-04-03T14:37:50;1.10;;;1.10;;
3865;SDS011;1948;53.250;10.412;2023-04-03T14:40:26;1.20;;;1.10;;
3865;SDS011;1948;53.250;10.412;2023-04-03T14:42:56;2.80;;;1.33;;
3865;SDS011;1948;53.250;10.412;2023-04-03T14:45:25;1.70;;;1.60;;
3865;SDS011;1948;53.250;10.412;2023-04-03T14:47:53;1.63;;;1.40;;
3865;SDS011;1948;53.250;10.412;2023-04-03T14:50:24;1.40;;;1.30;;
3865;SDS011;1948;53.250;10.412;2023-04-03T14:52:56;1.03;;;1.03;;
3865;SDS011;1948;53.250;10.412;2023-04-03T14:55:25;1.07;;;0.90;;
3865;SDS011;1948;53.250;10.412;2023-04-03T14:57:56;1.80;;;1.03;;
3865;SDS011;1948;53.250;10.412;2023-04-03T15:00:23;1.30;;;1.20;;
3865;SDS011;1948;53.250;10.412;2023-04-03T15:02:52;2.77;;;1.20;;
3865;SDS011;1948;53.250;10.412;2023-04-03T15:05:23;2.57;;;1.23;;
3865;SDS011;1948;53.250;10.412;2023-04-03T15:07:52;1.17;;;1.17;;
3865;SDS011;1948;53.250;10.412;2023-04-03T15:10:29;3.30;;;1.30;;
3865;SDS011;1948;53.250;10.412;2023-04-03T15:12:57;2.63;;;1.63;;
3865;SDS011;1948;53.250;10.412;2023-04-03T15:15:24;4.60;;;1.07;;
3865;SDS011;1948;53.250;10.412;2023-04-03T15:17:56;1.37;;;1.03;;
3865;SDS011;1948;53.250;10.412;2023-04-03T15:20:25;1.17;;;1.00;;
3865;SDS011;1948;53.250;10.412;2023-04-03T15:22:59;3.07;;;1.40;;
3865;SDS011;1948;53.250;10.412;2023-04-03T15:25:27;3.77;;;1.20;;
3865;SDS011;1948;53.250;10.412;2023-04-03T15:27:57;1.87;;;1.10;;
3865;SDS011;1948;53.250;10.412;2023-04-03T15:30:27;1.73;;;1.13;;
3865;SDS011;1948;53.250;10.412;2023-04-03T15:32:57;1.63;;;1.20;;
3865;SDS011;1948;53.250;10.412;2023-04-03T15:35:28;0.87;;;0.87;;
3865;SDS011;1948;53.250;10.412;2023-04-03T15:37:55;1.60;;;1.13;;
3865;SDS011;1948;53.250;10.412;2023-04-03T15:40:22;1.20;;;1.10;;
3865;SDS011;1948;53.250;10.412;2023-04-03T15:42:49;1.57;;;1.20;;
3865;SDS011;1948;53.250;10.412;2023-04-03T15:45:19;1.20;;;1.10;;
3865;SDS011;1948;53.250;10.412;2023-04-03T15:47:47;1.17;;;0.90;;
3865;SDS011;1948;53.250;10.412;2023-04-03T15:50:14;1.60;;;1.07;;
3865;SDS011;1948;53.250;10.412;2023-04-03T15:52:42;4.43;;;1.10;;
3865;SDS011;1948;53.250;10.412;2023-04-03T15:55:09;0.90;;;0.90;;
3865;SDS011;1948;53.250;10.412;2023-04-03T15:57:36;3.53;;;1.33;;
3865;SDS011;1948;53.250;10.412;2023-04-03T16:00:08;4.97;;;1.20;;
3865;SDS011;1948;53.250;10.412;2023-04-03T16:02:36;1.13;;;1.03;;
3865;SDS011;1948;53.250;10.412;2023-04-03T16:05:04;1.30;;;1.00;;
3865;SDS011;1948;53.250;10.412;2023-04-03T16:07:31;2.47;;;1.07;;
3865;SDS011;1948;53.250;10.412;2023-04-03T16:10:04;2.20;;;1.57;;
3865;SDS011;1948;53.250;10.412;2023-04-03T16:12:32;1.43;;;1.10;;
3865;SDS011;1948;53.250;10.412;2023-04-03T16:15:00;1.33;;;1.23;;
3865;SDS011;1948;53.250;10.412;2023-04-03T16:17:27;4.63;;;1.60;;
3865;SDS011;1948;53.250;10.412;2023-04-03T16:19:54;1.07;;;1.07;;
3865;SDS011;1948;53.250;10.412;2023-04-03T16:22:24;4.37;;;1.23;;
3865;SDS011;1948;53.250;10.412;2023-04-03T16:24:56;2.40;;;0.93;;
3865;SDS011;1948;53.250;10.412;2023-04-03T16:27:23;2.00;;;1.43;;
3865;SDS011;1948;53.250;10.412;2023-04-03T16:29:54;1.00;;;1.00;;
3865;SDS011;1948;53.250;10.412;2023-04-03T16:32:24;1.50;;;1.30;;
3865;SDS011;1948;53.250;10.412;2023-04-03T16:34:56;7.37;;;1.80;;
3865;SDS011;1948;53.250;10.412;2023-04-03T16:37:24;2.10;;;1.37;;
3865;SDS011;1948;53.250;10.412;2023-04-03T16:39:53;1.30;;;1.20;;
3865;SDS011;1948;53.250;10.412;2023-04-03T16:42:21;1.30;;;1.30;;
3865;SDS011;1948;53.250;10.412;2023-04-03T16:44:48;1.73;;;1.10;;
3865;SDS011;1948;53.250;10.412;2023-04-03T16:47:15;3.53;;;1.20;;
3865;SDS011;1948;53.250;10.412;2023-04-03T16:49:45;1.43;;;1.10;;
3865;SDS011;1948;53.250;10.412;2023-04-03T16:52:21;4.00;;;1.27;;
3865;SDS011;1948;53.250;10.412;2023-04-03T16:54:49;9.20;;;1.83;;
3865;SDS011;1948;53.250;10.412;2023-04-03T16:57:17;0.90;;;0.90;;
3865;SDS011;1948;53.250;10.412;2023-04-03T16:59:49;3.57;;;1.47;;
3865;SDS011;1948;53.250;10.412;2023-04-03T17:02:19;4.40;;;2.63;;
3865;SDS011;1948;53.250;10.412;2023-04-03T17:04:47;1.27;;;1.10;;
3865;SDS011;1948;53.250;10.412;2023-04-03T17:07:20;9.23;;;1.50;;
3865;SDS011;1948;53.250;10.412;2023-04-03T17:09:49;4.77;;;1.30;;
3865;SDS011;1948;53.250;10.412;2023-04-03T17:12:20;4.53;;;1.40;;
3865;SDS011;1948;53.250;10.412;2023-04-03T17:14:52;2.97;;;1.30;;
3865;SDS011;1948;53.250;10.412;2023-04-03T17:17:24;2.10;;;1.20;;
3865;SDS011;1948;53.250;10.412;2023-04-03T17:19:54;1.80;;;1.50;;
3865;SDS011;1948;53.250;10.412;2023-04-03T17:22:24;6.23;;;1.20;;
3865;SDS011;1948;53.250;10.412;2023-04-03T17:24:52;2.97;;;1.47;;